createdAt,value
2022-09-17T00:00:53.627Z,10.13
2022-09-17T00:01:53.681Z,10.15
2022-09-17T00:02:53.696Z,10.16
2022-09-17T00:03:53.594Z,10.17
2022-09-17T00:04:53.573Z,10.19
2022-09-17T00:05:53.582Z,10.20
2022-09-17T00:06:53.539Z,10.23
2022-09-17T00:07:53.529Z,10.25
2022-09-17T00:08:53.521Z,10.28
2022-09-17T00:09:53.512Z,10.28
2022-09-17T00:10:53.496Z,10.26
2022-09-17T00:11:53.499Z,10.31
2022-09-17T00:12:53.480Z,10.31
2022-09-17T00:13:53.535Z,10.35
2022-09-17T00:14:53.450Z,10.35
2022-09-17T00:15:53.502Z,10.37
2022-09-17T00:16:53.905Z,10.35
2022-09-17T00:17:53.422Z,10.35
2022-09-17T00:19:00.457Z,10.34
2022-09-17T00:19:53.396Z,10.33
2022-09-17T00:20:53.387Z,10.31
2022-09-17T00:21:53.366Z,10.30
2022-09-17T00:22:53.386Z,10.25
2022-09-17T00:23:53.356Z,10.22
2022-09-17T00:24:53.335Z,10.20
2022-09-17T00:25:53.326Z,10.20
2022-09-17T00:26:53.316Z,10.23
2022-09-17T00:27:53.329Z,10.22
2022-09-17T00:28:53.299Z,10.23
2022-09-17T00:29:53.277Z,10.25
2022-09-17T00:30:53.335Z,10.23
2022-09-17T00:31:53.266Z,10.25
2022-09-17T00:32:53.258Z,10.26
2022-09-17T00:33:53.256Z,10.28
2022-09-17T00:34:53.227Z,10.28
2022-09-17T00:35:53.207Z,10.30
2022-09-17T00:36:53.207Z,10.30
2022-09-17T00:37:53.186Z,10.31
2022-09-17T00:38:53.207Z,10.31
2022-09-17T00:39:53.211Z,10.31
2022-09-17T00:40:53.164Z,10.33
2022-09-17T00:41:53.146Z,10.31
2022-09-17T00:42:53.126Z,10.31
2022-09-17T00:43:53.139Z,10.30
2022-09-17T00:44:53.139Z,10.28
2022-09-17T00:45:53.106Z,10.28
2022-09-17T00:46:53.118Z,10.28
2022-09-17T00:47:53.086Z,10.30
2022-09-17T00:48:53.074Z,10.30
2022-09-17T00:49:53.055Z,10.33
2022-09-17T00:50:53.066Z,10.35
2022-09-17T00:51:55.057Z,10.37
2022-09-17T00:52:54.017Z,10.38
2022-09-17T00:53:53.017Z,10.40
2022-09-17T00:54:53.004Z,10.42
2022-09-17T00:55:53.038Z,10.44
2022-09-17T00:56:52.978Z,10.46
2022-09-17T00:57:52.966Z,10.49
2022-09-17T00:58:52.955Z,10.51
2022-09-17T00:59:52.948Z,10.53
2022-09-17T01:00:52.984Z,10.56
2022-09-17T01:01:53.041Z,10.56
2022-09-17T01:02:52.907Z,10.57
2022-09-17T01:03:52.906Z,10.57
2022-09-17T01:04:52.884Z,10.57
2022-09-17T01:05:52.876Z,10.60
2022-09-17T01:06:52.856Z,10.60
2022-09-17T01:07:52.867Z,10.60
2022-09-17T01:08:52.837Z,10.60
2022-09-17T01:09:52.839Z,10.60
2022-09-17T01:10:52.816Z,10.61
2022-09-17T01:11:52.806Z,10.64
2022-09-17T01:12:52.814Z,10.64
2022-09-17T01:13:52.796Z,10.64
2022-09-17T01:14:52.766Z,10.68
2022-09-17T01:15:52.797Z,10.68
2022-09-17T01:16:52.747Z,10.68
2022-09-17T01:17:52.736Z,10.69
2022-09-17T01:18:52.738Z,10.69
2022-09-17T01:19:52.717Z,10.68
2022-09-17T01:20:52.709Z,10.69
2022-09-17T01:21:52.698Z,10.67
2022-09-17T01:22:52.676Z,10.68
2022-09-17T01:23:52.709Z,10.67
2022-09-17T01:24:52.669Z,10.64
2022-09-17T01:25:52.646Z,10.64
2022-09-17T01:26:52.636Z,10.64
2022-09-17T01:27:52.626Z,10.63
2022-09-17T01:28:52.616Z,10.64
2022-09-17T01:29:52.635Z,10.67
2022-09-17T01:30:52.594Z,10.67
2022-09-17T01:31:52.621Z,10.64
2022-09-17T01:32:52.577Z,10.64
2022-09-17T01:33:52.566Z,10.64
2022-09-17T01:34:52.546Z,10.63
2022-09-17T01:35:52.614Z,10.63
2022-09-17T01:36:52.518Z,10.63
2022-09-17T01:37:52.516Z,10.61
2022-09-17T01:38:52.514Z,10.60
2022-09-17T01:39:52.573Z,10.61
2022-09-17T01:40:52.487Z,10.59
2022-09-17T01:41:52.491Z,10.59
2022-09-17T01:42:52.468Z,10.57
2022-09-17T01:43:52.465Z,10.57
2022-09-17T01:44:52.435Z,10.54
2022-09-17T01:45:52.438Z,10.54
2022-09-17T01:46:52.518Z,10.56
2022-09-17T01:47:52.406Z,10.56
2022-09-17T01:48:52.388Z,10.54
2022-09-17T01:49:52.377Z,10.54
2022-09-17T01:50:52.366Z,10.51
2022-09-17T01:51:52.366Z,10.51
2022-09-17T01:52:52.381Z,10.51
2022-09-17T01:53:52.389Z,10.49
2022-09-17T01:54:52.328Z,10.48
2022-09-17T01:55:52.316Z,10.48
2022-09-17T01:56:52.301Z,10.46
2022-09-17T01:57:52.287Z,10.46
2022-09-17T01:58:52.357Z,10.46
2022-09-17T01:59:52.267Z,10.46
2022-09-17T02:00:52.361Z,10.46
2022-09-17T02:01:52.303Z,10.46
2022-09-17T02:02:52.227Z,10.46
2022-09-17T02:03:52.247Z,10.41
2022-09-17T02:04:52.226Z,10.41
2022-09-17T02:05:52.206Z,10.40
2022-09-17T02:06:52.189Z,10.40
2022-09-17T02:07:52.178Z,10.37
2022-09-17T02:08:52.159Z,10.37
2022-09-17T02:09:52.194Z,10.37
2022-09-17T02:10:52.138Z,10.34
2022-09-17T02:11:52.141Z,10.35
2022-09-17T02:12:52.117Z,10.34
2022-09-17T02:13:52.117Z,10.31
2022-09-17T02:14:52.108Z,10.30
2022-09-17T02:15:52.154Z,10.28
2022-09-17T02:16:52.080Z,10.31
2022-09-17T02:17:52.066Z,10.28
2022-09-17T02:18:52.055Z,10.26
2022-09-17T02:19:52.041Z,10.25
2022-09-17T02:20:52.027Z,10.25
2022-09-17T02:21:52.047Z,10.22
2022-09-17T02:22:52.006Z,10.20
2022-09-17T02:23:52.007Z,10.19
2022-09-17T02:24:51.986Z,10.20
2022-09-17T02:25:51.977Z,10.17
2022-09-17T02:26:51.959Z,10.15
2022-09-17T02:27:51.977Z,10.13
2022-09-17T02:28:51.936Z,10.12
2022-09-17T02:29:51.934Z,10.12
2022-09-17T02:30:51.917Z,10.09
2022-09-17T02:31:51.971Z,10.09
2022-09-17T02:32:51.918Z,10.07
2022-09-17T02:33:51.985Z,10.04
2022-09-17T02:34:51.872Z,10.04
2022-09-17T02:35:51.866Z,10.04
2022-09-17T02:36:51.848Z,10.02
2022-09-17T02:37:51.837Z,10.04
2022-09-17T02:38:51.867Z,10.07
2022-09-17T02:39:51.844Z,10.05
2022-09-17T02:40:51.807Z,10.05
2022-09-17T02:41:51.795Z,10.05
2022-09-17T02:42:51.788Z,10.04
2022-09-17T02:43:51.964Z,10.02
2022-09-17T02:44:51.777Z,10.01
2022-09-17T02:45:51.747Z,9.99
2022-09-17T02:46:51.758Z,9.99
2022-09-17T02:47:51.726Z,9.97
2022-09-17T02:48:51.707Z,9.98
2022-09-17T02:49:51.705Z,9.98
2022-09-17T02:50:51.706Z,9.97
2022-09-17T02:51:51.685Z,9.98
2022-09-17T02:52:51.667Z,9.99
2022-09-17T02:53:51.666Z,9.98
2022-09-17T02:54:51.657Z,9.98
2022-09-17T02:55:51.658Z,9.98
2022-09-17T02:56:51.617Z,9.99
2022-09-17T02:57:51.614Z,9.98
2022-09-17T02:58:51.605Z,9.98
2022-09-17T02:59:51.587Z,9.97
2022-09-17T03:00:51.654Z,9.98
2022-09-17T03:01:51.617Z,9.98
2022-09-17T03:02:51.555Z,9.98
2022-09-17T03:03:51.556Z,9.98
2022-09-17T03:04:51.545Z,9.97
2022-09-17T03:05:51.533Z,9.95
2022-09-17T03:06:51.517Z,9.97
2022-09-17T03:07:51.517Z,9.94
2022-09-17T03:08:51.486Z,9.97
2022-09-17T03:09:51.476Z,9.98
2022-09-17T03:10:51.465Z,9.97
2022-09-17T03:11:51.455Z,9.97
2022-09-17T03:12:51.457Z,9.94
2022-09-17T03:13:51.447Z,9.94
2022-09-17T03:14:51.417Z,9.94
2022-09-17T03:15:51.455Z,9.94
2022-09-17T03:16:51.397Z,9.94
2022-09-17T03:17:53.386Z,9.94
2022-09-17T03:18:51.397Z,9.92
2022-09-17T03:19:51.364Z,9.94
2022-09-17T03:20:51.349Z,9.94
2022-09-17T03:21:51.346Z,9.94
2022-09-17T03:22:51.331Z,9.94
2022-09-17T03:23:51.327Z,9.97
2022-09-17T03:24:51.327Z,9.97
2022-09-17T03:25:51.300Z,9.95
2022-09-17T03:26:51.284Z,9.97
2022-09-17T03:27:51.276Z,9.98
2022-09-17T03:28:51.268Z,9.97
2022-09-17T03:29:51.249Z,9.99
2022-09-17T03:30:51.272Z,9.99
2022-09-17T03:31:51.275Z,10.01
2022-09-17T03:32:51.212Z,10.02
2022-09-17T03:33:51.221Z,10.02
2022-09-17T03:34:51.188Z,10.02
2022-09-17T03:35:51.199Z,10.02
2022-09-17T03:36:51.196Z,10.02
2022-09-17T03:37:51.162Z,10.02
2022-09-17T03:38:51.155Z,10.02
2022-09-17T03:39:51.212Z,10.04
2022-09-17T03:40:51.135Z,10.02
2022-09-17T03:41:51.167Z,10.02
2022-09-17T03:42:51.114Z,10.01
2022-09-17T03:43:51.107Z,9.99
2022-09-17T03:44:51.078Z,9.99
2022-09-17T03:45:51.068Z,9.99
2022-09-17T03:46:51.170Z,10.01
2022-09-17T03:47:51.066Z,9.99
2022-09-17T03:48:51.046Z,9.99
2022-09-17T03:49:51.017Z,9.99
2022-09-17T03:50:51.016Z,9.98
2022-09-17T03:51:50.997Z,9.98
2022-09-17T03:52:50.988Z,9.98
2022-09-17T03:53:51.008Z,9.95
2022-09-17T03:54:50.975Z,9.97
2022-09-17T03:55:50.952Z,9.97
2022-09-17T03:56:50.959Z,9.94
2022-09-17T03:57:50.937Z,9.92
2022-09-17T03:58:50.929Z,9.91
2022-09-17T03:59:50.928Z,9.89
2022-09-17T04:00:50.939Z,9.89
2022-09-17T04:01:51.008Z,9.87
2022-09-17T04:02:50.961Z,9.87
2022-09-17T04:03:50.889Z,9.86
2022-09-17T04:04:50.857Z,9.87
2022-09-17T04:05:50.858Z,9.87
2022-09-17T04:06:50.836Z,9.86
2022-09-17T04:07:50.817Z,9.83
2022-09-17T04:08:50.816Z,9.83
2022-09-17T04:09:50.797Z,9.83
2022-09-17T04:10:50.787Z,9.83
2022-09-17T04:11:50.798Z,9.80
2022-09-17T04:12:50.769Z,9.77
2022-09-17T04:13:50.757Z,9.76
2022-09-17T04:14:50.746Z,9.76
2022-09-17T04:15:50.776Z,9.73
2022-09-17T04:16:50.717Z,9.73
2022-09-17T04:17:50.728Z,9.68
2022-09-17T04:18:50.697Z,9.66
2022-09-17T04:19:50.689Z,9.66
2022-09-17T04:20:50.675Z,9.64
2022-09-17T04:21:50.658Z,9.65
2022-09-17T04:22:50.657Z,9.64
2022-09-17T04:23:50.676Z,9.64
2022-09-17T04:24:50.627Z,9.62
2022-09-17T04:25:50.628Z,9.64
2022-09-17T04:26:50.607Z,9.59
2022-09-17T04:27:50.591Z,9.56
2022-09-17T04:28:50.616Z,9.54
2022-09-17T04:29:50.567Z,9.55
2022-09-17T04:30:50.719Z,9.55
2022-09-17T04:31:50.549Z,9.56
2022-09-17T04:32:50.537Z,9.55
2022-09-17T04:33:50.537Z,9.54
2022-09-17T04:34:50.538Z,9.55
2022-09-17T04:35:50.497Z,9.55
2022-09-17T04:36:50.495Z,9.54
2022-09-17T04:37:50.486Z,9.56
2022-09-17T04:38:50.467Z,9.58
2022-09-17T04:39:50.535Z,9.58
2022-09-17T04:40:50.447Z,9.56
2022-09-17T04:41:50.448Z,9.58
2022-09-17T04:42:50.430Z,9.58
2022-09-17T04:43:50.419Z,9.59
2022-09-17T04:44:50.409Z,9.58
2022-09-17T04:45:50.408Z,9.59
2022-09-17T04:46:50.450Z,9.58
2022-09-17T04:47:50.368Z,9.59
2022-09-17T04:48:50.356Z,9.58
2022-09-17T04:49:50.346Z,9.55
2022-09-17T04:50:50.338Z,9.51
2022-09-17T04:51:50.346Z,9.55
2022-09-17T04:52:50.318Z,9.56
2022-09-17T04:53:50.339Z,9.56
2022-09-17T04:54:50.297Z,9.56
2022-09-17T04:55:50.277Z,9.55
2022-09-17T04:56:50.269Z,9.56
2022-09-17T04:57:50.389Z,9.55
2022-09-17T04:58:50.248Z,9.54
2022-09-17T04:59:50.227Z,9.55
2022-09-17T05:00:50.283Z,9.59
2022-09-17T05:01:50.258Z,9.59
2022-09-17T05:02:50.199Z,9.58
2022-09-17T05:03:50.227Z,9.59
2022-09-17T05:04:50.177Z,9.62
2022-09-17T05:05:50.165Z,9.61
2022-09-17T05:06:50.155Z,9.62
2022-09-17T05:07:50.147Z,9.64
2022-09-17T05:08:50.137Z,9.61
2022-09-17T05:09:50.149Z,9.61
2022-09-17T05:10:50.107Z,9.58
2022-09-17T05:11:50.097Z,9.54
2022-09-17T05:12:50.161Z,9.50
2022-09-17T05:13:50.076Z,9.46
2022-09-17T05:14:50.085Z,9.41
2022-09-17T05:15:50.129Z,9.39
2022-09-17T05:16:50.045Z,9.40
2022-09-17T05:17:50.038Z,9.43
2022-09-17T05:18:50.017Z,9.40
2022-09-17T05:19:50.035Z,9.40
2022-09-17T05:20:50.026Z,9.40
2022-09-17T05:21:49.989Z,9.36
2022-09-17T05:22:49.976Z,9.34
2022-09-17T05:23:49.967Z,9.32
2022-09-17T05:24:49.960Z,9.31
2022-09-17T05:25:49.944Z,9.32
2022-09-17T05:26:49.954Z,9.31
2022-09-17T05:27:49.916Z,9.29
2022-09-17T05:28:49.910Z,9.31
2022-09-17T05:29:49.894Z,9.32
2022-09-17T05:30:49.886Z,9.34
2022-09-17T05:31:49.867Z,9.34
2022-09-17T05:32:49.878Z,9.36
2022-09-17T05:33:49.857Z,9.34
2022-09-17T05:34:49.838Z,9.34
2022-09-17T05:35:49.827Z,9.34
2022-09-17T05:36:49.832Z,9.36
2022-09-17T05:37:49.807Z,9.37
2022-09-17T05:38:49.875Z,9.40
2022-09-17T05:39:49.816Z,9.43
2022-09-17T05:40:49.775Z,9.47
2022-09-17T05:41:49.757Z,9.51
2022-09-17T05:42:49.755Z,9.51
2022-09-17T05:43:49.765Z,9.51
2022-09-17T05:44:49.746Z,9.55
2022-09-17T05:45:49.706Z,9.56
2022-09-17T05:46:49.750Z,9.58
2022-09-17T05:47:49.698Z,9.61
2022-09-17T05:48:49.676Z,9.64
2022-09-17T05:49:49.698Z,9.64
2022-09-17T05:50:49.657Z,9.64
2022-09-17T05:51:49.637Z,9.64
2022-09-17T05:52:49.637Z,9.62
2022-09-17T05:53:49.627Z,9.64
2022-09-17T05:54:49.616Z,9.62
2022-09-17T05:55:49.638Z,9.65
2022-09-17T05:56:49.587Z,9.68
2022-09-17T05:57:49.592Z,9.69
2022-09-17T05:58:49.731Z,9.72
2022-09-17T05:59:49.561Z,9.76
2022-09-17T06:00:49.580Z,9.77
2022-09-17T06:01:49.584Z,9.82
2022-09-17T06:02:49.559Z,9.84
2022-09-17T06:03:49.590Z,9.89
2022-09-17T06:04:49.496Z,9.92
2022-09-17T06:05:49.487Z,9.97
2022-09-17T06:06:49.508Z,9.98
2022-09-17T06:07:49.467Z,10.02
2022-09-17T06:08:49.500Z,10.05
2022-09-17T06:09:49.445Z,10.09
2022-09-17T06:10:49.426Z,10.13
2022-09-17T06:11:49.417Z,10.17
2022-09-17T06:12:49.432Z,10.22
2022-09-17T06:13:49.487Z,10.25
2022-09-17T06:14:49.385Z,10.30
2022-09-17T06:15:49.482Z,10.31
2022-09-17T06:16:49.367Z,10.37
2022-09-17T06:17:49.376Z,10.42
2022-09-17T06:18:49.346Z,10.46
2022-09-17T06:19:56.389Z,10.49
2022-09-17T06:20:51.959Z,10.56
2022-09-17T06:21:51.928Z,10.57
2022-09-17T06:22:49.304Z,10.72
2022-09-17T06:23:49.333Z,10.78
2022-09-17T06:24:49.280Z,10.90
2022-09-17T06:25:49.262Z,11.00
2022-09-17T06:26:49.250Z,11.07
2022-09-17T06:27:49.240Z,11.19
2022-09-17T06:28:49.321Z,11.68
2022-09-17T06:29:49.240Z,12.18
2022-09-17T06:30:49.328Z,12.60
2022-09-17T06:31:49.367Z,12.73
2022-09-17T06:32:49.187Z,12.76
2022-09-17T06:33:49.188Z,12.98
2022-09-17T06:34:49.202Z,13.22
2022-09-17T06:35:49.146Z,13.46
2022-09-17T06:36:49.139Z,13.63
2022-09-17T06:37:49.139Z,13.78
2022-09-17T06:38:49.184Z,13.99
2022-09-17T06:39:49.111Z,14.26
2022-09-17T06:40:49.111Z,14.77
2022-09-17T06:41:49.079Z,15.33
2022-09-17T06:42:49.070Z,15.68
2022-09-17T06:43:49.059Z,15.95
2022-09-17T06:44:49.063Z,16.21
2022-09-17T06:45:49.111Z,16.60
2022-09-17T06:46:49.074Z,16.84
2022-09-17T06:47:49.012Z,16.96
2022-09-17T06:48:49.015Z,17.16
2022-09-17T06:49:48.994Z,17.30
2022-09-17T06:50:48.993Z,17.33
2022-09-17T06:51:48.981Z,17.44
2022-09-17T06:52:48.962Z,17.76
2022-09-17T06:53:49.019Z,17.94
2022-09-17T06:54:48.943Z,18.38
2022-09-17T06:55:48.923Z,18.50
2022-09-17T06:56:48.942Z,18.20
2022-09-17T06:57:48.900Z,18.53
2022-09-17T06:58:48.891Z,18.75
2022-09-17T06:59:48.880Z,18.55
2022-09-17T07:00:48.899Z,18.62
2022-09-17T07:01:48.898Z,18.90
2022-09-17T07:02:48.873Z,19.04
2022-09-17T07:03:48.832Z,19.54
2022-09-17T07:04:48.832Z,19.41
2022-09-17T07:05:48.815Z,19.22
2022-09-17T07:06:48.803Z,19.24
2022-09-17T07:07:48.814Z,18.88
2022-09-17T07:08:48.831Z,19.07
2022-09-17T07:09:48.773Z,19.14
2022-09-17T07:10:48.762Z,19.12
2022-09-17T07:11:48.754Z,18.99
2022-09-17T07:12:50.012Z,18.86
2022-09-17T07:13:48.776Z,19.02
2022-09-17T07:14:48.734Z,18.96
2022-09-17T07:15:48.717Z,19.16
2022-09-17T07:16:48.697Z,19.16
2022-09-17T07:17:48.677Z,19.09
2022-09-17T07:18:48.675Z,18.73
2022-09-17T07:19:48.686Z,18.74
2022-09-17T07:20:48.653Z,19.19
2022-09-17T07:21:48.638Z,19.45
2022-09-17T07:22:48.626Z,19.71
2022-09-17T07:23:48.681Z,19.44
2022-09-17T07:24:48.610Z,19.64
2022-09-17T07:25:48.605Z,19.94
2022-09-17T07:26:48.576Z,19.41
2022-09-17T07:27:48.566Z,19.15
2022-09-17T07:28:48.568Z,18.90
2022-09-17T07:29:48.558Z,19.21
2022-09-17T07:30:48.600Z,18.96
2022-09-17T07:31:48.554Z,18.70
2022-09-17T07:32:48.519Z,18.90
2022-09-17T07:33:48.499Z,19.31
2022-09-17T07:34:48.488Z,19.49
2022-09-17T07:35:48.477Z,19.36
2022-09-17T07:36:48.488Z,19.91
2022-09-17T07:37:48.448Z,20.06
2022-09-17T07:38:48.534Z,19.82
2022-09-17T07:39:48.430Z,19.92
2022-09-17T07:40:48.429Z,19.95
2022-09-17T07:41:48.479Z,19.74
2022-09-17T07:42:48.419Z,19.86
2022-09-17T07:43:48.395Z,20.09
2022-09-17T07:44:48.381Z,20.22
2022-09-17T07:45:48.371Z,20.22
2022-09-17T07:46:48.429Z,20.48
2022-09-17T07:47:48.362Z,20.52
2022-09-17T07:48:48.343Z,20.51
2022-09-17T07:49:48.322Z,20.34
2022-09-17T07:50:48.319Z,20.11
2022-09-17T07:51:48.321Z,19.77
2022-09-17T07:52:48.293Z,19.34
2022-09-17T07:53:48.365Z,19.37
2022-09-17T07:54:48.271Z,19.41
2022-09-17T07:55:48.262Z,19.51
2022-09-17T07:56:48.244Z,19.82
2022-09-17T07:57:48.242Z,20.32
2022-09-17T07:58:48.233Z,20.90
2022-09-17T07:59:48.263Z,20.03
2022-09-17T08:00:48.231Z,18.96
2022-09-17T08:01:48.279Z,18.84
2022-09-17T08:02:48.229Z,18.65
2022-09-17T08:03:48.184Z,19.04
2022-09-17T08:04:48.156Z,18.41
2022-09-17T08:05:48.166Z,18.25
2022-09-17T08:06:48.136Z,18.10
2022-09-17T08:07:48.134Z,17.46
2022-09-17T08:08:48.125Z,17.76
2022-09-17T08:09:48.106Z,18.35
2022-09-17T08:10:48.118Z,19.00
2022-09-17T08:11:56.693Z,19.31
2022-09-17T08:12:49.077Z,19.14
2022-09-17T08:13:48.065Z,18.60
2022-09-17T08:14:48.053Z,19.08
2022-09-17T08:15:48.061Z,19.29
2022-09-17T08:16:48.047Z,19.04
2022-09-17T08:17:48.016Z,19.34
2022-09-17T08:18:48.005Z,19.41
2022-09-17T08:19:47.998Z,19.24
2022-09-17T08:20:48.011Z,19.39
2022-09-17T08:21:47.979Z,19.49
2022-09-17T08:22:50.189Z,19.55
2022-09-17T08:23:47.964Z,19.66
2022-09-17T08:24:47.938Z,19.71
2022-09-17T08:25:47.932Z,19.55
2022-09-17T08:26:47.918Z,19.51
2022-09-17T08:27:47.928Z,19.39
2022-09-17T08:28:47.903Z,18.70
2022-09-17T08:29:47.889Z,18.16
2022-09-17T08:30:47.872Z,17.72
2022-09-17T08:31:47.919Z,17.27
2022-09-17T08:32:47.852Z,16.83
2022-09-17T08:33:47.869Z,16.57
2022-09-17T08:34:47.830Z,16.36
2022-09-17T08:35:47.821Z,16.17
2022-09-17T08:36:47.801Z,15.91
2022-09-17T08:37:47.807Z,15.64
2022-09-17T08:38:47.841Z,15.46
2022-09-17T08:39:47.797Z,16.13
2022-09-17T08:40:47.762Z,16.79
2022-09-17T08:41:47.766Z,17.41
2022-09-17T08:42:47.741Z,17.90
2022-09-17T08:43:47.732Z,18.28
2022-09-17T08:44:48.589Z,18.63
2022-09-17T08:45:47.713Z,18.84
2022-09-17T08:46:47.786Z,18.99
2022-09-17T08:47:47.691Z,19.08
2022-09-17T08:48:47.681Z,19.54
2022-09-17T08:49:47.669Z,20.06
2022-09-17T08:50:47.672Z,20.28
2022-09-17T08:51:47.643Z,20.18
2022-09-17T08:52:47.643Z,20.50
2022-09-17T08:53:47.623Z,20.28
2022-09-17T08:54:48.386Z,20.41
2022-09-17T08:55:47.607Z,20.29
2022-09-17T08:56:47.645Z,19.51
2022-09-17T08:57:47.575Z,18.71
2022-09-17T08:58:47.564Z,18.37
2022-09-17T08:59:47.565Z,18.88
2022-09-17T09:00:47.544Z,18.45
2022-09-17T09:01:47.660Z,18.22
2022-09-17T09:02:47.568Z,18.45
2022-09-17T09:03:47.515Z,18.73
2022-09-17T09:04:47.497Z,18.29
2022-09-17T09:05:47.503Z,17.72
2022-09-17T09:06:47.476Z,17.49
2022-09-17T09:07:47.486Z,17.85
2022-09-17T09:08:47.517Z,18.11
2022-09-17T09:09:47.446Z,17.78
2022-09-17T09:10:47.436Z,18.23
2022-09-17T09:11:47.417Z,18.34
2022-09-17T09:12:47.406Z,18.23
2022-09-17T09:13:47.415Z,18.66
2022-09-17T09:14:47.387Z,19.02
2022-09-17T09:15:47.403Z,18.89
2022-09-17T09:16:47.358Z,18.73
2022-09-17T09:17:47.348Z,19.44
2022-09-17T09:18:47.358Z,19.99
2022-09-17T09:19:47.329Z,20.16
2022-09-17T09:20:47.321Z,20.52
2022-09-17T09:21:47.309Z,20.66
2022-09-17T09:22:47.288Z,20.16
2022-09-17T09:23:47.289Z,20.04
2022-09-17T09:24:47.289Z,19.45
2022-09-17T09:25:47.263Z,18.86
2022-09-17T09:26:47.250Z,18.40
2022-09-17T09:27:47.249Z,18.08
2022-09-17T09:28:47.230Z,17.86
2022-09-17T09:29:47.249Z,17.64
2022-09-17T09:30:47.212Z,17.57
2022-09-17T09:31:47.254Z,17.57
2022-09-17T09:32:47.189Z,17.54
2022-09-17T09:33:48.075Z,17.59
2022-09-17T09:34:47.161Z,17.68
2022-09-17T09:35:47.171Z,17.57
2022-09-17T09:36:47.141Z,17.41
2022-09-17T09:37:47.132Z,17.16
2022-09-17T09:38:47.114Z,16.96
2022-09-17T09:39:47.111Z,16.99
2022-09-17T09:40:47.113Z,16.86
2022-09-17T09:41:47.093Z,16.86
2022-09-17T09:42:47.080Z,16.87
2022-09-17T09:44:03.222Z,16.66
2022-09-17T09:44:48.052Z,16.46
2022-09-17T09:45:47.892Z,16.32
2022-09-17T09:46:47.109Z,16.24
2022-09-17T09:47:47.023Z,16.15
2022-09-17T09:48:47.002Z,15.86
2022-09-17T09:49:47.002Z,15.59
2022-09-17T09:51:04.600Z,15.61
2022-09-17T09:51:47.993Z,15.62
2022-09-17T09:52:46.964Z,15.70
2022-09-17T09:53:47.039Z,15.79
2022-09-17T09:54:47.025Z,15.84
2022-09-17T09:55:46.934Z,15.88
2022-09-17T09:56:46.914Z,15.90
2022-09-17T09:57:46.926Z,15.94
2022-09-17T09:58:46.895Z,16.00
2022-09-17T09:59:46.884Z,15.68
2022-09-17T10:00:46.874Z,15.52
2022-09-17T10:01:46.984Z,15.44
2022-09-17T10:02:46.990Z,15.54
2022-09-17T10:03:46.848Z,15.58
2022-09-17T10:04:51.413Z,15.61
2022-09-17T10:05:47.827Z,15.65
2022-09-17T10:06:46.826Z,15.59
2022-09-17T10:07:46.805Z,15.44
2022-09-17T10:08:46.805Z,15.35
2022-09-17T10:09:46.785Z,15.25
2022-09-17T10:10:46.765Z,15.22
2022-09-17T10:11:46.757Z,15.19
2022-09-17T10:12:46.747Z,15.10
2022-09-17T10:13:46.736Z,15.15
2022-09-17T10:14:46.810Z,15.06
2022-09-17T10:15:46.729Z,14.97
2022-09-17T10:16:46.697Z,14.94
2022-09-17T10:17:46.696Z,14.94
2022-09-17T10:18:46.676Z,14.94
2022-09-17T10:19:46.666Z,14.92
2022-09-17T10:20:46.676Z,14.96
2022-09-17T10:21:46.646Z,14.96
2022-09-17T10:22:46.637Z,14.92
2022-09-17T10:23:46.702Z,14.92
2022-09-17T10:24:46.607Z,14.97
2022-09-17T10:25:46.598Z,15.00
2022-09-17T10:26:46.607Z,15.04
2022-09-17T10:27:46.578Z,15.06
2022-09-17T10:28:46.557Z,15.22
2022-09-17T10:29:46.557Z,15.42
2022-09-17T10:30:46.547Z,15.54
2022-09-17T10:31:46.601Z,15.62
2022-09-17T10:32:46.517Z,15.83
2022-09-17T10:33:46.508Z,15.98
2022-09-17T10:34:46.497Z,16.04
2022-09-17T10:35:46.487Z,16.05
2022-09-17T10:36:46.475Z,16.20
2022-09-17T10:37:46.496Z,16.42
2022-09-17T10:38:46.558Z,16.56
2022-09-17T10:39:46.449Z,16.78
2022-09-17T10:40:46.429Z,16.90
2022-09-17T10:41:46.418Z,17.05
2022-09-17T10:42:46.408Z,17.20
2022-09-17T10:43:46.408Z,17.11
2022-09-17T10:44:46.378Z,16.89
2022-09-17T10:45:46.368Z,16.86
2022-09-17T10:46:46.476Z,16.68
2022-09-17T10:47:46.357Z,16.49
2022-09-17T10:48:46.369Z,16.41
2022-09-17T10:49:46.330Z,16.32
2022-09-17T10:50:46.319Z,16.39
2022-09-17T10:51:46.309Z,16.50
2022-09-17T10:52:46.298Z,16.71
2022-09-17T10:53:46.321Z,16.89
2022-09-17T10:54:46.300Z,17.11
2022-09-17T10:55:46.268Z,17.24
2022-09-17T10:56:46.251Z,17.31
2022-09-17T10:57:46.241Z,17.46
2022-09-17T10:58:46.231Z,17.56
2022-09-17T10:59:46.220Z,17.49
2022-09-17T11:00:46.220Z,17.65
2022-09-17T11:01:46.334Z,17.60
2022-09-17T11:02:46.224Z,17.46
2022-09-17T11:03:46.178Z,17.45
2022-09-17T11:04:46.161Z,17.48
2022-09-17T11:05:46.203Z,17.27
2022-09-17T11:06:46.139Z,16.99
2022-09-17T11:07:46.131Z,16.96
2022-09-17T11:08:46.140Z,16.89
2022-09-17T11:09:46.110Z,16.86
2022-09-17T11:10:46.091Z,16.76
2022-09-17T11:11:46.101Z,16.76
2022-09-17T11:12:46.070Z,16.81
2022-09-17T11:13:46.062Z,16.75
2022-09-17T11:14:46.054Z,16.60
2022-09-17T11:15:48.599Z,16.71
2022-09-17T11:16:47.115Z,16.72
2022-09-17T11:17:46.025Z,16.81
2022-09-17T11:18:46.003Z,16.86
2022-09-17T11:19:46.003Z,16.79
2022-09-17T11:20:45.984Z,16.75
2022-09-17T11:21:45.972Z,16.66
2022-09-17T11:22:45.975Z,16.64
2022-09-17T11:23:46.031Z,16.71
2022-09-17T11:24:45.944Z,16.86
2022-09-17T11:25:45.937Z,16.84
2022-09-17T11:26:45.924Z,16.72
2022-09-17T11:27:45.944Z,16.69
2022-09-17T11:28:45.902Z,16.74
2022-09-17T11:29:45.894Z,16.78
2022-09-17T11:30:45.876Z,16.89
2022-09-17T11:31:45.939Z,17.02
2022-09-17T11:32:45.853Z,17.19
2022-09-17T11:33:45.865Z,17.29
2022-09-17T11:34:45.837Z,17.08
2022-09-17T11:35:45.826Z,17.02
2022-09-17T11:36:45.812Z,17.05
2022-09-17T11:37:45.805Z,16.99
2022-09-17T11:38:45.820Z,16.87
2022-09-17T11:39:45.806Z,16.76
2022-09-17T11:40:45.765Z,16.83
2022-09-17T11:41:45.756Z,17.06
2022-09-17T11:42:45.743Z,17.19
2022-09-17T11:43:45.740Z,17.23
2022-09-17T11:44:45.718Z,17.19
2022-09-17T11:45:45.740Z,17.23
2022-09-17T11:46:45.741Z,17.09
2022-09-17T11:47:45.686Z,17.01
2022-09-17T11:48:45.678Z,16.90
2022-09-17T11:49:45.667Z,16.96
2022-09-17T11:50:45.656Z,17.02
2022-09-17T11:51:45.701Z,16.99
2022-09-17T11:52:45.654Z,17.01
2022-09-17T11:53:45.631Z,17.12
2022-09-17T11:54:45.607Z,17.31
2022-09-17T11:55:45.611Z,17.56
2022-09-17T11:56:45.607Z,17.72
2022-09-17T11:57:45.580Z,17.85
2022-09-17T11:58:45.578Z,17.80
2022-09-17T11:59:45.558Z,17.64
2022-09-17T12:00:45.545Z,17.49
2022-09-17T12:01:45.611Z,17.52
2022-09-17T12:02:45.585Z,17.45
2022-09-17T12:03:45.517Z,17.41
2022-09-17T12:04:45.510Z,17.34
2022-09-17T12:05:45.498Z,17.09
2022-09-17T12:06:45.480Z,16.90
2022-09-17T12:07:45.468Z,16.75
2022-09-17T12:08:45.487Z,16.64
2022-09-17T12:09:45.447Z,16.58
2022-09-17T12:10:45.438Z,16.50
2022-09-17T12:11:45.418Z,16.28
2022-09-17T12:12:50.075Z,16.15
2022-09-17T12:13:46.450Z,16.26
2022-09-17T12:14:45.397Z,16.39
2022-09-17T12:15:48.672Z,16.51
2022-09-17T12:16:46.430Z,16.39
2022-09-17T12:17:45.357Z,16.24
2022-09-17T12:18:45.350Z,16.29
2022-09-17T12:19:45.359Z,16.31
2022-09-17T12:20:45.331Z,16.35
2022-09-17T12:21:45.309Z,16.36
2022-09-17T12:22:45.309Z,16.32
2022-09-17T12:23:45.289Z,16.10
2022-09-17T12:24:45.319Z,15.92
2022-09-17T12:25:45.268Z,15.91
2022-09-17T12:26:45.261Z,15.83
2022-09-17T12:27:45.240Z,15.79
2022-09-17T12:28:45.240Z,15.84
2022-09-17T12:29:45.224Z,15.80
2022-09-17T12:30:45.240Z,15.76
2022-09-17T12:31:45.269Z,15.77
2022-09-17T12:32:45.190Z,15.68
2022-09-17T12:33:45.171Z,15.73
2022-09-17T12:34:45.169Z,15.79
2022-09-17T12:36:03.089Z,15.90
2022-09-17T12:36:46.171Z,15.90
2022-09-17T12:37:45.128Z,15.90
2022-09-17T12:38:45.121Z,15.82
2022-09-17T12:39:45.109Z,15.84
2022-09-17T12:40:45.101Z,15.88
2022-09-17T12:41:45.083Z,15.92
2022-09-17T12:42:45.101Z,15.97
2022-09-17T12:43:45.061Z,15.94
2022-09-17T12:44:45.052Z,15.88
2022-09-17T12:45:49.957Z,15.95
2022-09-17T12:46:46.076Z,15.95
2022-09-17T12:47:45.011Z,15.94
2022-09-17T12:48:45.022Z,16.00
2022-09-17T12:49:44.992Z,16.08
2022-09-17T12:50:44.984Z,16.23
2022-09-17T12:51:44.970Z,16.41
2022-09-17T12:52:44.961Z,16.58
2022-09-17T12:53:44.955Z,16.65
2022-09-17T12:54:45.546Z,16.81
2022-09-17T12:55:44.932Z,16.86
2022-09-17T12:56:45.252Z,16.90
2022-09-17T12:57:44.904Z,16.89
2022-09-17T12:58:44.893Z,16.99